Airfield :
LOGIN :

Register | Disclaimer

   EN    FR    IT 

 










Legend :    VFR   Marginal VFR   IFR   Intensive IFR   Very Intensive IFR
Visi :
Ceiling :
>= 8 km
>= 3000ft
5 to 8 km
1000 to 3000 ft
1500m to 5 km
500 to 1000 ft
800 to 1500m
200 to 500 ft
< 800m
< 200 ft
Symbols :   Thunderstorms  Fog  Heavy snow  Heavy precipitations  Wind > 20 kt
SIGMETs :     Misc.  Thunderstorms  Icing  Turbulence  Mountain Waves  Volcanic Ashes







- Airport Elevation : 7 ft
- IATA code : POW


LJPZ - Portoroz

CURRENT METAR :
  • 251930Z 07015G25KT 030V100 9999 VCTS FEW040CB BKN060 14/04 Q1008

EXPIRED METARs :
  • 251900Z VRB02KT 9999 SCT060 BKN120 13/07 Q1008
  • 251830Z VRB01KT CAVOK 12/06 Q1007
  • 251800Z 08001KT CAVOK 14/07 Q1007
  • 251730Z 02001KT CAVOK 15/06 Q1007
  • 251700Z 24004KT CAVOK 16/05 Q1007

TAF TAF LJPZ
Valid from the 25 at 18:00 until the 26 at 03:00 UTC


251700Z 2518/2603 21007KT CAVOK
BECMG 2518/2520 05015G30KT BKN070
TEMPO 2518/2524 7000 RA BKN050
PROB40
TEMPO 2518/2521 VRB15KT 5000 TSRA SCT030CB BKN050
No reported NOTAMs for that airfield.
1 SIGMET reported for the Ljubljana FIR (LJLA) :
 
Embedded thunderstorms
LJLA SIGMET 6 VALID 251900/252000 LJLJ
LJLA LJUBLJANA FIR EMBD TS OBS WI N4536 E01434 - N4608 E01541 - N4548 E01550 - N4521 E01508 - N4536 E01434 TOP FL300 MOV SE 10KT WKN=



MET'MAP, your aeronautical weather chart ! - Copyright ORBIFLY December 2007 - Disclaimer

ORBIFLY MET'MAP TEAM :

Programming & Development : Alexandra Zaïnal
Concept & Development : Baudouin d'Aumeries
Co-Development & Prog : Marc-Olivier Méhu
Technical & hardware support : Manuel Goepfert

Contact : metmap@orbifly.com




SOURCES & CREDITS :

   NOAA